createdAt,value
2018-08-20T00:00:15.094Z,16.60
2018-08-20T00:02:43.620Z,16.79
2018-08-20T00:05:12.153Z,16.71
2018-08-20T00:07:40.713Z,16.97
2018-08-20T00:10:10.844Z,17.04
2018-08-20T00:12:39.438Z,16.69
2018-08-20T00:15:08.025Z,16.53
2018-08-20T00:17:36.578Z,16.75
2018-08-20T00:20:05.847Z,16.70
2018-08-20T00:22:34.470Z,16.53
2018-08-20T00:25:11.640Z,16.41
2018-08-20T00:27:40.232Z,16.59
2018-08-20T00:30:11.720Z,16.51
2018-08-20T00:32:41.544Z,16.57
2018-08-20T00:35:10.468Z,16.70
2018-08-20T00:37:39.028Z,16.68
2018-08-20T00:40:07.544Z,16.67
2018-08-20T00:42:36.085Z,16.70
2018-08-20T00:45:05.872Z,16.53
2018-08-20T00:47:34.516Z,16.54
2018-08-20T00:50:03.032Z,16.74
2018-08-20T00:52:31.626Z,16.54
2018-08-20T00:55:00.152Z,16.34
2018-08-20T00:57:28.709Z,16.47
2018-08-20T00:59:57.232Z,16.63
2018-08-20T01:02:29.272Z,16.32
2018-08-20T01:04:58.565Z,16.49
2018-08-20T01:07:27.831Z,16.44
2018-08-20T01:09:56.957Z,16.50
2018-08-20T01:12:26.289Z,16.32
2018-08-20T01:14:54.872Z,16.22
2018-08-20T01:17:23.444Z,16.37
2018-08-20T01:19:52.029Z,16.29
2018-08-20T01:22:21.000Z,16.60
2018-08-20T01:24:49.628Z,16.53
2018-08-20T01:27:23.425Z,16.15
2018-08-20T01:29:52.493Z,16.10
2018-08-20T01:32:21.088Z,15.75
2018-08-20T01:34:49.688Z,15.77
2018-08-20T01:37:19.544Z,15.77
2018-08-20T01:39:48.667Z,15.44
2018-08-20T01:42:17.829Z,15.46
2018-08-20T01:44:47.359Z,15.45
2018-08-20T01:47:15.897Z,15.76
2018-08-20T01:49:44.474Z,15.88
2018-08-20T01:52:13.049Z,16.10
2018-08-20T01:54:41.620Z,15.84
2018-08-20T01:57:10.160Z,15.99
2018-08-20T01:59:39.102Z,16.10
2018-08-20T02:02:07.685Z,15.80
2018-08-20T02:04:36.285Z,15.85
2018-08-20T02:07:04.953Z,16.17
2018-08-20T02:09:33.500Z,16.12
2018-08-20T02:12:02.131Z,16.06
2018-08-20T02:14:30.713Z,15.73
2018-08-20T02:16:59.371Z,15.49
2018-08-20T02:19:27.919Z,15.67
2018-08-20T02:21:56.487Z,15.92
2018-08-20T02:24:25.021Z,16.21
2018-08-20T02:26:53.578Z,15.62
2018-08-20T02:29:22.123Z,15.49
2018-08-20T02:31:50.720Z,15.60
2018-08-20T02:34:19.252Z,15.66
2018-08-20T02:36:47.852Z,15.37
2018-08-20T02:39:16.418Z,15.76
2018-08-20T02:41:44.991Z,15.65
2018-08-20T02:44:13.956Z,15.88
2018-08-20T02:46:50.973Z,15.58
2018-08-20T02:49:19.661Z,15.41
2018-08-20T02:51:49.016Z,15.46
2018-08-20T02:54:17.636Z,15.31
2018-08-20T02:56:46.233Z,15.42
2018-08-20T02:59:15.495Z,15.61
2018-08-20T03:01:44.089Z,15.96
2018-08-20T03:04:12.639Z,15.70
2018-08-20T03:06:41.188Z,15.70
2018-08-20T03:09:12.505Z,15.33
2018-08-20T03:11:41.052Z,15.33
2018-08-20T03:14:09.862Z,15.41
2018-08-20T03:16:38.836Z,15.55
2018-08-20T03:19:08.075Z,15.68
2018-08-20T03:21:36.653Z,15.45
2018-08-20T03:24:05.404Z,15.60
2018-08-20T03:26:33.937Z,15.48
2018-08-20T03:29:02.501Z,15.40
2018-08-20T03:31:31.253Z,15.11
2018-08-20T03:33:59.931Z,15.12
2018-08-20T03:36:28.472Z,14.76
2018-08-20T03:38:57.056Z,14.83
2018-08-20T03:41:25.612Z,14.90
2018-08-20T03:43:54.200Z,15.11
2018-08-20T03:46:22.808Z,15.35
2018-08-20T03:48:51.387Z,15.13
2018-08-20T03:51:19.936Z,15.19
2018-08-20T03:53:48.545Z,14.89
2018-08-20T03:56:17.067Z,15.03
2018-08-20T03:58:45.632Z,15.14
2018-08-20T04:01:14.183Z,15.05
2018-08-20T04:03:42.726Z,15.14
2018-08-20T04:06:11.238Z,14.99
2018-08-20T04:08:39.780Z,14.84
2018-08-20T04:11:08.426Z,15.01
2018-08-20T04:13:37.004Z,15.12
2018-08-20T04:16:05.541Z,15.04
2018-08-20T04:18:34.052Z,14.90
2018-08-20T04:21:02.594Z,15.03
2018-08-20T04:23:31.168Z,14.91
2018-08-20T04:25:59.726Z,15.18
2018-08-20T04:28:28.264Z,15.49
2018-08-20T04:30:56.842Z,15.11
2018-08-20T04:33:25.361Z,15.36
2018-08-20T04:35:53.903Z,15.50
2018-08-20T04:38:22.478Z,15.18
2018-08-20T04:40:51.032Z,14.91
2018-08-20T04:43:19.549Z,14.72
2018-08-20T04:45:48.101Z,14.51
2018-08-20T04:48:16.654Z,14.63
2018-08-20T04:50:45.288Z,14.76
2018-08-20T04:53:13.788Z,14.85
2018-08-20T04:55:42.346Z,15.11
2018-08-20T04:58:10.856Z,15.15
2018-08-20T05:00:39.370Z,15.42
2018-08-20T05:03:11.912Z,15.23
2018-08-20T05:05:40.433Z,15.03
2018-08-20T05:08:15.778Z,14.94
2018-08-20T05:10:44.434Z,15.00
2018-08-20T05:15:57.960Z,15.38
2018-08-20T05:18:26.488Z,15.19
2018-08-20T05:20:55.447Z,15.01
2018-08-20T05:23:24.033Z,15.10
2018-08-20T05:25:52.547Z,15.41
2018-08-20T05:28:21.113Z,15.55
2018-08-20T05:30:49.780Z,15.75
2018-08-20T05:33:18.702Z,15.61
2018-08-20T05:35:47.342Z,15.50
2018-08-20T05:38:15.928Z,15.49
2018-08-20T05:40:44.428Z,15.63
2018-08-20T05:43:12.978Z,15.71
2018-08-20T05:45:41.494Z,15.78
2018-08-20T05:48:10.080Z,15.99
2018-08-20T05:50:39.228Z,16.11
2018-08-20T05:53:07.877Z,16.11
2018-08-20T05:55:36.399Z,16.28
2018-08-20T05:58:04.969Z,16.34
2018-08-20T06:00:33.488Z,16.51
2018-08-20T06:03:02.049Z,16.54
2018-08-20T06:05:30.561Z,16.62
2018-08-20T06:07:59.196Z,16.83
2018-08-20T06:10:27.734Z,16.91
2018-08-20T06:12:56.260Z,17.03
2018-08-20T06:15:24.900Z,17.09
2018-08-20T06:17:53.378Z,17.25
2018-08-20T06:20:21.945Z,17.33
2018-08-20T06:22:50.467Z,17.38
2018-08-20T06:25:19.028Z,17.44
2018-08-20T06:27:47.560Z,17.32
2018-08-20T06:30:18.077Z,17.48
2018-08-20T06:32:46.805Z,17.50
2018-08-20T06:35:15.394Z,17.72
2018-08-20T06:37:43.937Z,18.04
2018-08-20T06:40:14.175Z,18.18
2018-08-20T06:42:42.740Z,18.15
2018-08-20T06:45:16.645Z,18.33
2018-08-20T06:47:45.878Z,18.42
2018-08-20T06:50:15.132Z,18.43
2018-08-20T06:52:44.726Z,18.49
2018-08-20T06:55:14.360Z,18.67
2018-08-20T06:57:43.925Z,18.83
2018-08-20T07:00:12.747Z,18.93
2018-08-20T07:02:41.458Z,19.15
2018-08-20T07:05:10.420Z,19.26
2018-08-20T07:07:40.612Z,19.29
2018-08-20T07:10:14.772Z,19.34
2018-08-20T07:12:44.196Z,19.46
2018-08-20T07:15:14.510Z,19.40
2018-08-20T07:17:47.105Z,19.71
2018-08-20T07:20:16.694Z,19.68
2018-08-20T07:22:45.309Z,19.82
2018-08-20T07:25:13.905Z,19.97
2018-08-20T07:27:42.504Z,20.13
2018-08-20T07:30:11.912Z,20.39
2018-08-20T07:32:40.501Z,20.13
2018-08-20T07:35:09.684Z,20.34
2018-08-20T07:37:38.244Z,20.34
2018-08-20T07:40:07.893Z,20.28
2018-08-20T07:42:36.534Z,20.41
2018-08-20T07:45:05.112Z,20.53
2018-08-20T07:47:33.680Z,20.38
2018-08-20T07:50:02.271Z,20.60
2018-08-20T07:52:30.896Z,20.53
2018-08-20T07:54:59.424Z,20.63
2018-08-20T07:57:27.977Z,20.74
2018-08-20T07:59:56.496Z,20.76
2018-08-20T08:02:25.116Z,20.88
2018-08-20T08:04:53.676Z,20.82
2018-08-20T08:07:22.245Z,20.67
2018-08-20T08:09:50.764Z,20.75
2018-08-20T08:12:19.313Z,20.92
2018-08-20T08:14:47.893Z,20.99
2018-08-20T08:17:16.440Z,21.04
2018-08-20T08:19:45.072Z,20.82
2018-08-20T08:22:13.611Z,21.13
2018-08-20T08:24:42.161Z,21.20
2018-08-20T08:27:10.768Z,21.28
2018-08-20T08:29:39.833Z,21.13
2018-08-20T08:32:11.331Z,21.11
2018-08-20T08:34:39.889Z,21.27
2018-08-20T08:37:08.474Z,21.48
2018-08-20T08:39:36.997Z,21.32
2018-08-20T08:42:05.571Z,21.30
2018-08-20T08:44:34.135Z,21.51
2018-08-20T08:47:02.928Z,21.45
2018-08-20T08:49:31.484Z,21.28
2018-08-20T08:52:00.144Z,21.50
2018-08-20T08:54:28.716Z,21.49
2018-08-20T08:56:57.261Z,21.32
2018-08-20T08:59:25.838Z,21.89
2018-08-20T09:01:54.388Z,21.47
2018-08-20T09:04:22.980Z,21.72
2018-08-20T09:06:51.584Z,21.67
2018-08-20T09:09:20.181Z,21.62
2018-08-20T09:11:48.709Z,21.51
2018-08-20T09:14:17.292Z,21.62
2018-08-20T09:16:45.820Z,21.45
2018-08-20T09:19:14.393Z,21.81
2018-08-20T09:21:42.997Z,21.53
2018-08-20T09:24:17.668Z,21.59
2018-08-20T09:26:46.212Z,21.51
2018-08-20T09:29:14.792Z,21.44
2018-08-20T09:31:43.356Z,21.52
2018-08-20T09:34:11.877Z,21.76
2018-08-20T09:36:40.449Z,21.58
2018-08-20T09:44:01.688Z,21.94
2018-08-20T09:46:30.512Z,21.83
2018-08-20T09:48:59.042Z,21.94
2018-08-20T09:51:27.604Z,22.03
2018-08-20T09:53:56.148Z,22.01
2018-08-20T09:56:24.765Z,22.02
2018-08-20T09:58:53.297Z,21.97
2018-08-20T10:01:21.832Z,22.64
2018-08-20T10:03:50.336Z,22.53
2018-08-20T10:06:18.910Z,22.48
2018-08-20T10:08:47.433Z,22.45
2018-08-20T10:11:15.985Z,22.30
2018-08-20T10:13:44.514Z,22.70
2018-08-20T10:16:13.071Z,23.22
2018-08-20T10:18:41.613Z,22.78
2018-08-20T10:21:11.771Z,22.66
2018-08-20T10:23:40.300Z,23.00
2018-08-20T10:26:08.866Z,22.51
2018-08-20T10:28:37.376Z,22.49
2018-08-20T10:31:05.933Z,22.89
2018-08-20T10:33:34.496Z,23.18
2018-08-20T10:36:03.127Z,23.24
2018-08-20T10:38:31.700Z,23.01
2018-08-20T10:41:00.229Z,23.17
2018-08-20T10:43:28.776Z,23.05
2018-08-20T10:46:02.667Z,24.20
2018-08-20T10:48:37.754Z,23.66
2018-08-20T10:51:06.370Z,23.40
2018-08-20T10:53:35.008Z,23.96
2018-08-20T10:56:03.565Z,24.27
2018-08-20T10:58:32.109Z,24.06
2018-08-20T11:01:00.621Z,23.72
2018-08-20T11:03:29.189Z,23.63
2018-08-20T11:05:57.738Z,23.96
2018-08-20T11:08:26.287Z,24.42
2018-08-20T11:10:54.866Z,24.20
2018-08-20T11:13:23.352Z,24.55
2018-08-20T11:15:51.879Z,24.15
2018-08-20T11:18:20.509Z,24.39
2018-08-20T11:20:48.991Z,25.29
2018-08-20T11:23:17.528Z,25.22
2018-08-20T11:25:46.062Z,25.09
2018-08-20T11:28:15.150Z,24.81
2018-08-20T11:30:43.686Z,24.65
2018-08-20T11:33:12.261Z,24.86
2018-08-20T11:35:41.044Z,24.69
2018-08-20T11:38:09.561Z,25.23
2018-08-20T11:40:38.104Z,25.15
2018-08-20T11:43:07.002Z,24.96
2018-08-20T11:45:35.550Z,25.02
2018-08-20T11:48:04.124Z,25.17
2018-08-20T11:50:33.825Z,25.08
2018-08-20T11:53:04.645Z,25.42
2018-08-20T11:55:35.823Z,25.28
2018-08-20T11:58:09.528Z,25.71
2018-08-20T12:00:39.461Z,25.33
2018-08-20T12:03:09.887Z,25.58
2018-08-20T12:05:43.911Z,25.81
2018-08-20T12:08:15.504Z,25.75
2018-08-20T12:10:53.765Z,26.09
2018-08-20T12:13:29.412Z,25.69
2018-08-20T12:16:00.958Z,25.84
2018-08-20T12:18:34.147Z,25.37
2018-08-20T12:21:06.147Z,25.91
2018-08-20T12:23:38.099Z,25.88
2018-08-20T12:26:15.076Z,26.54
2018-08-20T12:28:44.317Z,26.68
2018-08-20T12:31:14.783Z,26.16
2018-08-20T12:33:44.391Z,25.69
2018-08-20T12:36:19.549Z,26.29
2018-08-20T12:38:53.561Z,26.83
2018-08-20T12:41:24.036Z,26.71
2018-08-20T12:43:56.125Z,27.07
2018-08-20T12:46:24.685Z,26.67
2018-08-20T12:48:58.023Z,26.63
2018-08-20T12:51:32.072Z,26.55
2018-08-20T12:54:03.136Z,26.58
2018-08-20T12:56:36.469Z,27.18
2018-08-20T12:59:09.936Z,26.48
2018-08-20T13:01:41.465Z,26.85
2018-08-20T13:04:15.244Z,27.19
2018-08-20T13:06:46.579Z,27.04
2018-08-20T13:09:19.359Z,27.60
2018-08-20T13:11:53.700Z,26.94
2018-08-20T13:14:27.780Z,27.08
2018-08-20T13:16:58.481Z,26.66
2018-08-20T13:19:30.138Z,26.73
2018-08-20T13:22:08.047Z,27.06
2018-08-20T13:24:38.900Z,27.09
2018-08-20T13:27:12.073Z,26.90
2018-08-20T13:29:53.829Z,27.01
2018-08-20T13:32:27.379Z,27.08
2018-08-20T13:35:07.886Z,26.75
2018-08-20T13:37:38.190Z,27.01
2018-08-20T13:40:09.372Z,26.63
2018-08-20T13:42:40.214Z,27.21
2018-08-20T13:45:10.690Z,27.20
2018-08-20T13:47:40.172Z,26.97
2018-08-20T13:50:15.310Z,26.53
2018-08-20T13:52:46.377Z,26.71
2018-08-20T13:55:14.932Z,27.05
2018-08-20T13:57:46.569Z,27.55
2018-08-20T14:00:16.772Z,26.64
2018-08-20T14:02:45.329Z,26.93
2018-08-20T14:05:14.662Z,26.88
2018-08-20T14:07:43.208Z,26.35
2018-08-20T14:10:12.352Z,27.12
2018-08-20T14:12:42.392Z,26.72
2018-08-20T14:15:13.016Z,26.28
2018-08-20T14:17:43.006Z,26.75
2018-08-20T14:20:13.800Z,26.40
2018-08-20T14:22:43.032Z,26.28
2018-08-20T14:25:12.120Z,26.17
2018-08-20T14:27:40.593Z,26.40
2018-08-20T14:30:11.596Z,26.43
2018-08-20T14:32:40.350Z,26.39
2018-08-20T14:35:12.361Z,26.74
2018-08-20T14:37:42.109Z,26.37
2018-08-20T14:40:18.431Z,26.28
2018-08-20T14:42:47.230Z,26.08
2018-08-20T14:45:16.684Z,26.06
2018-08-20T14:47:45.958Z,26.19
2018-08-20T14:50:16.523Z,25.95
2018-08-20T14:52:45.113Z,26.03
2018-08-20T14:55:14.102Z,26.12
2018-08-20T14:57:42.628Z,26.52
2018-08-20T15:00:13.732Z,26.73
2018-08-20T15:02:43.437Z,26.73
2018-08-20T15:05:12.295Z,26.65
2018-08-20T15:12:34.070Z,26.18
2018-08-20T15:15:02.964Z,26.26
2018-08-20T15:17:31.481Z,26.18
2018-08-20T15:20:00.014Z,26.07
2018-08-20T15:22:34.883Z,26.12
2018-08-20T15:25:03.469Z,26.12
2018-08-20T15:27:33.084Z,26.03
2018-08-20T15:30:02.067Z,26.14
2018-08-20T15:32:39.037Z,26.04
2018-08-20T15:35:10.109Z,26.00
2018-08-20T15:37:43.224Z,25.90
2018-08-20T15:40:12.124Z,25.97
2018-08-20T15:42:40.684Z,25.85
2018-08-20T15:45:13.796Z,25.57
2018-08-20T15:47:43.040Z,25.51
2018-08-20T15:50:12.132Z,25.33
2018-08-20T15:52:40.747Z,25.56
2018-08-20T15:55:13.106Z,25.40
2018-08-20T15:57:42.213Z,25.48
2018-08-20T16:00:13.062Z,25.41
2018-08-20T16:02:42.572Z,25.31
2018-08-20T16:05:18.806Z,25.17
2018-08-20T16:07:48.849Z,25.24
2018-08-20T16:10:17.554Z,25.32
2018-08-20T16:12:46.101Z,25.29
2018-08-20T16:15:14.667Z,25.40
2018-08-20T16:17:43.460Z,25.36
2018-08-20T16:20:13.017Z,25.40
2018-08-20T16:22:41.801Z,25.40
2018-08-20T16:25:11.034Z,25.55
2018-08-20T16:27:39.561Z,25.70
2018-08-20T16:30:11.661Z,25.87
2018-08-20T16:32:40.252Z,25.94
2018-08-20T16:35:10.752Z,26.06
2018-08-20T16:37:39.324Z,26.01
2018-08-20T16:40:07.968Z,26.04
2018-08-20T16:42:38.940Z,26.00
2018-08-20T16:45:08.893Z,25.89
2018-08-20T16:47:37.457Z,25.93
2018-08-20T16:50:08.031Z,25.79
2018-08-20T16:52:41.406Z,25.79
2018-08-20T16:55:10.789Z,25.93
2018-08-20T16:57:39.372Z,25.98
2018-08-20T17:00:11.383Z,25.80
2018-08-20T17:02:40.896Z,25.58
2018-08-20T17:05:11.652Z,25.59
2018-08-20T17:07:40.229Z,25.40
2018-08-20T17:10:10.537Z,25.49
2018-08-20T17:12:43.315Z,25.27
2018-08-20T17:15:18.705Z,25.09
2018-08-20T17:17:55.547Z,25.26
2018-08-20T17:20:28.213Z,25.30
2018-08-20T17:23:12.217Z,25.03
2018-08-20T17:25:41.076Z,25.17
2018-08-20T17:28:09.593Z,25.21
2018-08-20T17:30:38.135Z,25.36
2018-08-20T17:33:07.276Z,25.73
2018-08-20T17:35:39.536Z,25.57
2018-08-20T17:38:10.676Z,25.58
2018-08-20T17:40:41.496Z,25.58
2018-08-20T17:43:10.512Z,25.73
2018-08-20T17:45:44.307Z,25.87
2018-08-20T17:48:25.468Z,25.65
2018-08-20T17:50:54.006Z,25.84
2018-08-20T17:53:22.605Z,25.92
2018-08-20T17:55:53.428Z,25.97
2018-08-20T17:58:22.177Z,26.00
2018-08-20T18:00:53.904Z,25.57
2018-08-20T18:03:31.057Z,25.66
2018-08-20T18:06:03.271Z,25.44
2018-08-20T18:08:33.532Z,25.29
2018-08-20T18:11:02.984Z,25.26
2018-08-20T18:13:38.787Z,24.98
2018-08-20T18:16:12.680Z,24.62
2018-08-20T18:18:42.672Z,24.61
2018-08-20T18:21:11.204Z,24.56
2018-08-20T18:23:39.793Z,24.42
2018-08-20T18:26:08.424Z,24.36
2018-08-20T18:28:45.662Z,24.36
2018-08-20T18:31:18.922Z,24.36
2018-08-20T18:33:47.678Z,24.27
2018-08-20T18:36:17.717Z,23.94
2018-08-20T18:38:54.720Z,23.90
2018-08-20T18:41:32.676Z,23.89
2018-08-20T18:44:01.497Z,23.61
2018-08-20T18:46:30.029Z,23.16
2018-08-20T18:48:58.627Z,23.34
2018-08-20T18:51:27.148Z,23.22
2018-08-20T18:53:56.146Z,23.27
2018-08-20T18:56:24.684Z,22.77
2018-08-20T18:58:53.447Z,22.63
2018-08-20T19:01:22.212Z,22.40
2018-08-20T19:03:50.772Z,22.36
2018-08-20T19:06:19.305Z,22.34
2018-08-20T19:08:55.196Z,22.10
2018-08-20T19:11:24.064Z,22.16
2018-08-20T19:13:59.208Z,21.66
2018-08-20T19:16:29.397Z,21.74
2018-08-20T19:18:58.788Z,21.88
2018-08-20T19:21:29.384Z,21.94
2018-08-20T19:23:59.700Z,21.77
2018-08-20T19:26:29.686Z,21.67
2018-08-20T19:28:58.371Z,21.45
2018-08-20T19:31:28.560Z,21.48
2018-08-20T19:33:59.457Z,21.19
2018-08-20T19:36:29.601Z,21.26
2018-08-20T19:38:58.628Z,21.18
2018-08-20T19:41:34.155Z,21.16
2018-08-20T19:44:07.287Z,21.07
2018-08-20T19:46:38.712Z,20.95
2018-08-20T19:49:12.808Z,21.25
2018-08-20T19:51:46.993Z,21.22
2018-08-20T19:54:20.123Z,21.30
2018-08-20T19:56:49.011Z,21.08
2018-08-20T19:59:26.610Z,20.95
2018-08-20T20:02:00.351Z,20.91
2018-08-20T20:04:35.815Z,20.71
2018-08-20T20:07:10.982Z,20.83
2018-08-20T20:09:59.898Z,20.73
2018-08-20T20:12:36.603Z,20.47
2018-08-20T20:15:05.745Z,20.20
2018-08-20T20:17:34.377Z,19.74
2018-08-20T20:20:06.084Z,19.87
2018-08-20T20:22:39.360Z,20.28
2018-08-20T20:25:10.703Z,20.54
2018-08-20T20:27:39.387Z,20.35
2018-08-20T20:30:08.601Z,20.02
2018-08-20T20:32:37.193Z,19.83
2018-08-20T20:35:12.004Z,19.74
2018-08-20T20:37:44.070Z,19.80
2018-08-20T20:40:13.048Z,19.94
2018-08-20T20:42:41.585Z,19.86
2018-08-20T20:45:13.517Z,19.68
2018-08-20T20:47:48.397Z,19.53
2018-08-20T20:50:20.728Z,19.73
2018-08-20T20:52:52.144Z,19.56
2018-08-20T20:55:24.326Z,19.51
2018-08-20T20:57:58.180Z,19.84
2018-08-20T21:00:29.026Z,19.65
2018-08-20T21:03:04.201Z,19.63
2018-08-20T21:05:35.898Z,19.48
2018-08-20T21:08:09.212Z,19.62
2018-08-20T21:10:45.710Z,19.58
2018-08-20T21:13:21.313Z,19.41
2018-08-20T21:15:59.026Z,19.16
2018-08-20T21:18:30.937Z,19.07
2018-08-20T21:21:01.051Z,19.05
2018-08-20T21:23:33.144Z,18.99
2018-08-20T21:26:08.287Z,19.04
2018-08-20T21:28:44.623Z,19.13
2018-08-20T21:31:16.418Z,18.93
2018-08-20T21:33:49.429Z,18.87
2018-08-20T21:36:19.345Z,18.86
2018-08-20T21:38:50.976Z,18.95
2018-08-20T21:41:27.979Z,18.96
2018-08-20T21:43:59.346Z,18.85
2018-08-20T21:46:30.200Z,18.80
2018-08-20T21:49:01.041Z,18.62
2018-08-20T21:51:35.232Z,18.59
2018-08-20T21:54:09.236Z,18.66
2018-08-20T21:56:54.178Z,18.75
2018-08-20T21:59:29.328Z,18.77
2018-08-20T22:02:00.159Z,18.75
2018-08-20T22:04:32.180Z,18.72
2018-08-20T22:07:05.243Z,18.71
2018-08-20T22:09:36.446Z,18.61
2018-08-20T22:12:07.426Z,18.38
2018-08-20T22:14:38.960Z,18.42
2018-08-20T22:17:09.997Z,18.54
2018-08-20T22:19:41.671Z,18.47
2018-08-20T22:22:15.322Z,18.46
2018-08-20T22:24:52.152Z,18.52
2018-08-20T22:27:22.315Z,18.31
2018-08-20T22:29:52.972Z,18.26
2018-08-20T22:32:22.289Z,18.08
2018-08-20T22:34:53.245Z,18.26
2018-08-20T22:37:25.914Z,18.46
2018-08-20T22:40:01.414Z,18.47
2018-08-20T22:42:45.122Z,18.62
2018-08-20T22:45:16.712Z,18.11
2018-08-20T22:47:51.100Z,17.89
2018-08-20T22:50:24.650Z,18.04
2018-08-20T22:52:53.560Z,17.81
2018-08-20T22:55:22.730Z,18.17
2018-08-20T22:58:15.699Z,18.20
2018-08-20T23:00:44.257Z,18.28
2018-08-20T23:03:12.794Z,18.19
2018-08-20T23:05:41.340Z,18.17
2018-08-20T23:08:18.195Z,18.07
2018-08-20T23:10:46.874Z,18.04
2018-08-20T23:13:18.199Z,18.20
2018-08-20T23:15:47.461Z,18.15
2018-08-20T23:18:16.049Z,18.28
2018-08-20T23:20:46.951Z,18.07
2018-08-20T23:23:19.298Z,18.04
2018-08-20T23:25:47.982Z,18.00
2018-08-20T23:28:17.856Z,18.15
2018-08-20T23:30:50.815Z,18.33
2018-08-20T23:33:19.332Z,18.31
2018-08-20T23:35:47.884Z,18.44
2018-08-20T23:38:16.425Z,18.42
2018-08-20T23:40:45.656Z,18.24
2018-08-20T23:43:14.176Z,18.55
2018-08-20T23:45:42.726Z,18.53
2018-08-20T23:48:14.058Z,18.46
2018-08-20T23:50:43.851Z,18.82
2018-08-20T23:53:13.429Z,18.74
2018-08-20T23:55:42.720Z,18.88
2018-08-20T23:58:12.904Z,18.73
